Lithonia, GA (30038)

4:34 PM EST on February 01, 2015 (GMT -0500)
Havenridge | Change Station
CLOSE
Current Station
Personal Weather Station
Location: Conyers, GA
Elevation: 879 ft
Nearby Weather Stations

Elev 879 ft 33.67 °N, 84.08 °W | Updated 10 seconds ago

Rain
Rain
54.0 °F
Feels Like 54.0 °F
N
0.0
Wind Variable Wind from South

Today
High -- | Low -- °F
--% Chance of Precip.
Yesterday
High -- | Low -- °F
Precip. -- in
7:33 AM 6:07 PM
Waxing Gibbous, 96% visible
Pressure 29.96 in
Visibility 6.0 miles
Clouds Scattered Clouds 2600 ft
Mostly Cloudy 5500 ft
Overcast 9000 ft
Dew Point 47 °F
Humidity 76%
Rainfall 0.02 in
Snow Depth Not available.
UV 1 out of 12
Pollen 3.70 out of 12
Air Quality Not available.
Flu Activity Not available.
METAR KATL 012052Z 16009KT 6SM -RA SCT026 BKN055 OVC090 12/09 A2996 RMK AO2 PRESFR SLP146 P0004 60005 T01220089 56046 $

More Conditions Fewer Conditions

Pressure 29.96 in
Visibility 6.0 miles
Clouds Scattered Clouds 2600 ft
Mostly Cloudy 5500 ft
Overcast 9000 ft
Dew Point 47 °F
Humidity 76%
Rainfall 0.02 in
Snow Depth Not available.
UV 1 out of 12
Pollen 3.70 out of 12
Air Quality Not available.
Flu Activity Not available.
METAR KATL 012052Z 16009KT 6SM -RA SCT026 BKN055 OVC090 12/09 A2996 RMK AO2 PRESFR SLP146 P0004 60005 T01220089 56046 $

More Conditions Fewer Conditions

10-Day Weather Forecast

Almanac

Astronomy

Feb. 01, 2015 Rise Set
Actual Time
Civil Twilight
Nautical Twilight
Astronomical Twilight
Moon
Length of Visible Light
Length of Day
Tomorrow will be .
, % of the Moon is Illuminated

Today's Extremes

State Highs State Lows

Community

WunderPhotos

Upload Photos

1,792,553 photos uploaded!

WunderBlogs® & News

Nearby

Air Quality

  Air Quality AQ Index Pollutant
Not available.

Snow Depth

Station Depth Elevation

Earthquake Activity

City Distance Mag. Time & Date
Minimum magnitude displayed is 2.5.

Coastal Water Temperatures

Place Temperature

Nearby Weather Stations